EDT,Max TemperatureF,Mean TemperatureF,Min TemperatureF,Max Dew PointF,MeanDew PointF,Min DewpointF,Max Humidity, Mean Humidity, Min Humidity, Max Sea Level PressureIn, Mean Sea Level PressureIn, Min Sea Level PressureIn, Max VisibilityMiles, Mean VisibilityMiles, Min VisibilityMiles, Max Wind SpeedMPH, Mean Wind SpeedMPH, Max Gust SpeedMPH,PrecipitationIn, CloudCover, Events, WindDirDegrees
2013-3-1,41,36,30,28,26,19,75,62,49,29.90,29.83,29.74,10,10,10,16,10,23,0.00,7,,322
2013-3-2,35,32,28,21,19,18,74,62,48,29.90,29.87,29.83,10,10,10,16,9,22,0.00,5,,322
2013-3-3,39,32,26,19,18,16,74,57,41,29.92,29.86,29.81,10,10,10,21,11,29,0.00,6,,325
2013-3-4,41,34,26,18,15,12,59,48,36,30.05,29.99,29.93,10,10,10,22,14,33,0.00,2,,325
2013-3-5,48,37,26,27,17,10,74,44,22,30.09,30.00,29.84,10,10,1,13,5,17,0.02,3,,72
2013-3-6,37,35,33,34,31,28,93,87,75,30.02,29.79,29.65,10,5,1,18,9,28,0.83,7,,42
2013-3-7,46,40,33,28,26,23,75,60,43,30.17,30.10,30.02,10,10,7,14,7,26,0.00,3,,347
2013-3-8,48,40,33,27,25,21,75,56,43,30.29,30.20,30.15,10,10,9,18,10,33,0.00,3,,347
2013-3-9,59,42,26,25,22,19,80,47,23,30.37,30.31,30.27,10,10,10,9,4,,0.00,0,,347
2013-3-10,62,46,30,28,21,12,80,40,16,30.34,30.29,30.23,10,10,10,16,4,21,0.00,0,,166
2013-3-11,57,48,39,46,41,25,93,73,46,30.26,30.13,29.96,10,10,8,16,9,22,0.00,3,,163
2013-3-12,57,48,39,54,42,27,94,73,54,29.98,29.86,29.74,10,10,2,20,13,29,0.89,5,,298
2013-3-13,46,37,28,28,23,16,93,54,32,30.07,29.97,29.92,10,10,10,22,9,31,0.00,2,,309
2013-3-14,42,36,30,18,14,12,60,43,29,30.13,30.08,30.03,10,10,10,24,15,36,0.00,2,,317
2013-3-15,55,42,28,30,21,16,69,44,28,30.10,29.96,29.80,10,10,10,15,9,22,0.00,1,,275
2013-3-16,53,45,35,36,32,30,87,61,47,29.95,29.79,29.67,10,10,8,12,5,16,0.00,7,,86
2013-3-17,39,36,33,30,25,19,87,65,48,30.28,30.13,29.94,10,9,4,12,5,17,0.00,5,,33
2013-3-18,35,32,30,34,26,18,93,74,48,30.33,30.18,29.90,10,8,2,14,5,21,0.31,7,,117
2013-3-19,55,45,35,39,27,9,93,61,19,29.92,29.82,29.72,10,7,0,25,6,39,0.04,4,,315
2013-3-20,48,40,33,21,14,10,56,34,22,30.01,29.91,29.79,10,10,10,21,9,24,0.00,1,,297
2013-3-21,35,30,26,27,13,5,86,48,32,29.90,29.83,29.77,10,10,2,20,7,30,0.00,4,,334
2013-3-22,44,34,24,18,14,9,60,46,34,30.01,29.93,29.89,10,10,10,20,8,28,0.00,1,,307
2013-3-23,50,38,26,23,20,18,74,50,30,30.04,30.00,29.93,10,10,10,16,5,24,0.00,0,,321
2013-3-24,41,34,26,30,21,18,87,60,42,30.02,29.87,29.68,10,10,9,10,2,,0.00,3,,96
2013-3-25,35,34,32,34,31,28,93,89,81,29.71,29.60,29.54,10,4,0,8,3,,0.40,8,,337
2013-3-26,48,39,30,32,28,23,93,67,40,30.00,29.86,29.72,10,9,3,15,8,23,0.00,4,,322
2013-3-27,46,40,33,30,25,21,70,55,39,30.14,30.07,30.01,10,10,10,22,10,31,0.00,4,,319
2013-3-28,46,40,33,28,27,21,70,57,39,30.24,30.15,30.10,10,10,10,18,9,28,0.00,6,,317
2013-3-29,53,44,35,30,26,21,70,50,30,30.27,30.22,30.16,10,10,10,16,7,26,0.00,5,,325
2013-3-30,57,44,30,32,25,18,86,50,23,30.24,30.19,30.14,10,10,10,12,2,16,0.00,1,,297
2013-3-31,51,46,41,48,37,25,94,72,49,30.14,29.94,29.77,10,8,2,9,5,,0.02,4,,165